Time;durP1;ratioP1;P1;durP2;ratioP2;P2;SDS_P1;SDS_P2;PMS_P1;PMS_P2;Temp;Humidity;BMP_temperature;BMP_pressure;BME280_temperature;BME280_humidity;BME280_pressure;Samples;Min_cycle;Max_cycle;Signal;HPM_P1;HPM_P2
2023/10/23 00:01:52;;;;;;;4.40;1.10;;;;;;;14.42;67.19;99149.94;4450877;32;33394;-85
2023/10/23 00:04:20;;;;;;;4.05;1.02;;;;;;;14.45;67.10;99153.41;4448936;32;34616;-86
2023/10/23 00:06:50;;;;;;;2.85;1.15;;;;;;;14.54;66.47;99148.16;4442666;32;34455;-86
2023/10/23 00:09:17;;;;;;;4.70;1.10;;;;;;;14.33;66.99;99143.88;4435427;32;34664;-86
2023/10/23 00:11:45;;;;;;;2.75;1.00;;;;;;;14.41;66.53;99143.84;4440529;32;34247;-87
2023/10/23 00:14:13;;;;;;;3.20;1.20;;;;;;;14.30;66.61;99146.47;4442290;32;34233;-85
2023/10/23 00:16:40;;;;;;;4.18;1.27;;;;;;;14.32;66.37;99136.94;4437464;32;33772;-87
2023/10/23 00:19:08;;;;;;;6.25;1.30;;;;;;;14.34;66.40;99142.13;4448398;32;34717;-86
2023/10/23 00:21:35;;;;;;;7.55;1.45;;;;;;;14.33;66.38;99143.00;4452707;32;34159;-86
2023/10/23 00:24:03;;;;;;;4.90;1.33;;;;;;;14.29;66.79;99141.28;4443633;32;34908;-86
2023/10/23 00:26:31;;;;;;;6.37;1.40;;;;;;;14.44;66.21;99141.25;4450687;32;33189;-86
2023/10/23 00:29:00;;;;;;;5.43;1.35;;;;;;;14.34;66.32;99149.94;4452726;32;33591;-86
2023/10/23 00:31:28;;;;;;;5.37;1.52;;;;;;;14.19;66.89;99148.25;4452628;32;34636;-86
2023/10/23 00:33:56;;;;;;;4.60;1.75;;;;;;;14.23;66.87;99151.72;4452430;32;33704;-87
2023/10/23 00:36:23;;;;;;;6.22;1.35;;;;;;;14.24;66.96;99149.09;4452784;32;33467;-86
2023/10/23 00:38:52;;;;;;;3.42;1.00;;;;;;;14.17;67.42;99151.72;4447778;32;33794;-86
2023/10/23 00:41:20;;;;;;;2.45;1.10;;;;;;;14.08;67.86;99148.25;4452583;32;34789;-87
2023/10/23 00:43:47;;;;;;;1.90;0.75;;;;;;;14.19;67.76;99152.59;4452153;32;33786;-87
2023/10/23 00:46:18;;;;;;;2.00;1.00;;;;;;;14.19;67.32;99150.00;4452618;32;33319;-87
2023/10/23 00:48:47;;;;;;;4.30;1.10;;;;;;;14.19;67.64;99155.19;4426825;32;33943;-87
2023/10/23 00:51:15;;;;;;;3.78;1.30;;;;;;;14.29;67.25;99156.94;4437319;32;33939;-86
2023/10/23 00:53:43;;;;;;;7.55;1.65;;;;;;;14.18;67.37;99156.94;4436947;32;34151;-87
2023/10/23 00:56:11;;;;;;;6.62;1.48;;;;;;;14.08;67.64;99148.25;4437241;32;33759;-87
2023/10/23 00:58:41;;;;;;;3.78;1.55;;;;;;;14.09;67.63;99150.03;4423526;32;33591;-86
2023/10/23 01:01:11;;;;;;;4.80;1.80;;;;;;;13.99;68.21;99147.44;4452210;32;34217;-86
2023/10/23 01:03:40;;;;;;;5.70;1.80;;;;;;;14.05;68.09;99143.09;4440126;32;34210;-86
2023/10/23 01:06:09;;;;;;;4.62;1.87;;;;;;;14.06;67.90;99138.72;4437141;32;33833;-87
2023/10/23 01:08:37;;;;;;;4.25;1.40;;;;;;;14.09;67.57;99147.41;4436986;32;33760;-86
2023/10/23 01:11:05;;;;;;;5.53;1.25;;;;;;;14.09;67.25;99142.19;4436960;32;34004;-86
2023/10/23 01:13:32;;;;;;;5.72;1.35;;;;;;;14.00;67.67;99151.75;4446640;32;34865;-87
2023/10/23 01:16:00;;;;;;;3.37;1.27;;;;;;;14.04;67.44;99146.53;4452184;32;33318;-86
2023/10/23 01:18:27;;;;;;;4.18;1.50;;;;;;;14.31;66.90;99152.56;4452421;32;34076;-87
2023/10/23 01:20:55;;;;;;;9.50;1.73;;;;;;;14.12;67.04;99154.34;4442290;32;34321;-86
2023/10/23 01:23:27;;;;;;;3.03;1.00;;;;;;;14.06;67.11;99150.03;4436336;32;34516;-86
2023/10/23 01:25:55;;;;;;;4.43;1.52;;;;;;;14.09;67.19;99157.84;4437153;32;33615;-86
2023/10/23 01:28:23;;;;;;;3.67;1.10;;;;;;;14.01;67.58;99162.16;4437346;32;34737;-86
2023/10/23 01:30:50;;;;;;;5.93;1.37;;;;;;;14.01;67.55;99159.56;4436789;32;35236;-87
2023/10/23 01:33:18;;;;;;;4.82;1.20;;;;;;;14.11;67.33;99157.81;4437073;32;33787;-86
2023/10/23 01:35:46;;;;;;;6.45;1.65;;;;;;;14.09;67.54;99155.25;4436925;32;34399;-87
2023/10/23 01:38:14;;;;;;;6.75;1.40;;;;;;;14.02;67.70;99150.03;4446753;32;34566;-87
2023/10/23 01:40:42;;;;;;;4.50;1.37;;;;;;;14.11;67.43;99152.63;4452264;32;34958;-86
2023/10/23 01:43:09;;;;;;;3.62;1.12;;;;;;;14.14;67.28;99147.41;4451061;32;33509;-83
2023/10/23 01:45:37;;;;;;;2.65;1.00;;;;;;;14.36;66.59;99148.22;4438252;32;34358;-87
2023/10/23 01:48:05;;;;;;;4.60;1.25;;;;;;;14.21;66.79;99148.25;4451939;32;34202;-86
2023/10/23 01:50:33;;;;;;;7.30;1.30;;;;;;;14.07;67.24;99149.13;4450667;32;34698;-86
2023/10/23 01:53:00;;;;;;;3.25;1.20;;;;;;;14.01;67.59;99140.47;4452251;32;34176;-86
2023/10/23 01:55:28;;;;;;;3.40;1.12;;;;;;;14.02;67.53;99143.06;4452303;32;33207;-86
2023/10/23 01:57:57;;;;;;;4.28;1.00;;;;;;;14.05;67.13;99144.78;4447126;32;34005;-87
2023/10/23 02:00:25;;;;;;;2.95;0.90;;;;;;;14.11;66.65;99148.25;4443556;32;33651;-86
2023/10/23 02:02:54;;;;;;;3.40;1.02;;;;;;;14.09;66.31;99149.13;4436716;32;34992;-87
2023/10/23 02:05:22;;;;;;;2.92;0.93;;;;;;;13.94;66.95;99143.94;4436788;32;33595;-87
2023/10/23 02:07:49;;;;;;;3.25;1.02;;;;;;;13.78;67.66;99154.37;4448983;32;33676;-86
2023/10/23 02:10:17;;;;;;;2.45;0.85;;;;;;;13.88;67.20;99160.47;4452040;32;33523;-87
2023/10/23 02:12:44;;;;;;;2.65;1.02;;;;;;;13.90;66.97;99157.84;4451893;32;34373;-87
2023/10/23 02:15:13;;;;;;;3.03;1.00;;;;;;;13.86;66.82;99156.97;4450857;32;33666;-84
2023/10/23 02:17:41;;;;;;;4.87;1.20;;;;;;;13.88;66.61;99150.03;4452148;32;33862;-87
2023/10/23 02:20:09;;;;;;;6.90;1.12;;;;;;;13.83;66.90;99146.59;4450957;32;34060;-85
2023/10/23 02:22:37;;;;;;;4.40;1.15;;;;;;;13.77;67.10;99146.56;4436752;32;34133;-86
2023/10/23 02:25:05;;;;;;;3.37;0.93;;;;;;;13.73;67.29;99156.13;4436746;32;34598;-86
2023/10/23 02:27:32;;;;;;;3.97;1.15;;;;;;;13.82;67.05;99150.03;4436455;32;34022;-86
2023/10/23 02:30:00;;;;;;;2.70;1.00;;;;;;;13.70;67.36;99150.91;4442731;32;33354;-86
2023/10/23 02:32:27;;;;;;;4.57;1.20;;;;;;;13.74;67.20;99149.16;4451648;32;34225;-86
2023/10/23 02:34:56;;;;;;;4.68;1.00;;;;;;;13.73;67.07;99156.13;4451849;32;33709;-86
2023/10/23 02:37:24;;;;;;;4.60;1.10;;;;;;;13.79;67.05;99152.66;4452041;32;34181;-85
2023/10/23 02:39:51;;;;;;;2.75;1.12;;;;;;;13.82;66.73;99157.84;4451858;32;34692;-86
2023/10/23 02:42:19;;;;;;;5.10;1.10;;;;;;;13.75;66.93;99162.22;4451761;32;35159;-87
2023/10/23 02:44:47;;;;;;;3.40;1.10;;;;;;;13.72;67.16;99150.94;4450754;32;34372;-85
2023/10/23 02:47:14;;;;;;;3.75;1.00;;;;;;;13.73;67.20;99160.47;4451661;32;34875;-85
2023/10/23 02:49:43;;;;;;;6.62;1.20;;;;;;;13.82;66.98;99157.84;4451594;32;33987;-86
2023/10/23 02:52:10;;;;;;;2.95;1.02;;;;;;;13.84;66.73;99158.72;4451666;32;34190;-86
2023/10/23 02:54:38;;;;;;;3.08;1.15;;;;;;;13.75;66.91;99164.81;4451799;32;33702;-87
2023/10/23 02:57:07;;;;;;;2.60;0.90;;;;;;;13.76;67.03;99160.47;4437454;32;33670;-86
2023/10/23 02:59:34;;;;;;;3.50;0.93;;;;;;;13.75;67.14;99166.53;4435483;32;34812;-85
2023/10/23 03:02:02;;;;;;;3.35;1.15;;;;;;;13.75;67.32;99154.41;4436362;32;34097;-86
2023/10/23 03:04:30;;;;;;;5.40;1.35;;;;;;;13.83;66.95;99162.22;4436371;32;33731;-83
2023/10/23 03:06:57;;;;;;;5.82;1.00;;;;;;;13.69;67.53;99167.41;4436274;32;33876;-87
2023/10/23 03:09:25;;;;;;;4.87;0.95;;;;;;;13.75;67.55;99164.81;4436372;32;33906;-87
2023/10/23 03:11:53;;;;;;;4.32;1.23;;;;;;;13.80;67.57;99175.25;4443588;32;34337;-86
2023/10/23 03:14:21;;;;;;;3.35;1.48;;;;;;;13.74;67.80;99170.00;4444180;32;33536;-86
2023/10/23 03:16:48;;;;;;;4.72;1.50;;;;;;;13.76;68.04;99176.09;4451651;32;34020;-87
2023/10/23 03:19:19;;;;;;;7.30;1.30;;;;;;;13.75;68.26;99182.16;4451500;32;34237;-86
2023/10/23 03:21:48;;;;;;;5.55;1.15;;;;;;;13.58;68.94;99176.97;4437528;32;34628;-86
2023/10/23 03:24:15;;;;;;;4.10;1.10;;;;;;;13.69;68.66;99170.03;4436260;32;33737;-86
2023/10/23 03:26:43;;;;;;;2.45;1.02;;;;;;;13.82;68.15;99166.53;4436277;32;33613;-86
2023/10/23 03:29:11;;;;;;;3.80;1.42;;;;;;;13.94;67.99;99170.00;4435984;32;33830;-85
2023/10/23 03:31:39;;;;;;;4.03;1.60;;;;;;;13.72;68.42;99171.78;4445091;32;34220;-86
2023/10/23 03:34:07;;;;;;;3.67;0.88;;;;;;;13.63;68.96;99176.09;4451645;32;33354;-86
2023/10/23 03:36:34;;;;;;;4.87;1.12;;;;;;;13.74;68.66;99177.84;4437712;32;34151;-87
2023/10/23 03:39:02;;;;;;;3.75;1.05;;;;;;;13.78;68.47;99182.16;4436054;32;34283;-86
2023/10/23 03:41:30;;;;;;;2.25;0.90;;;;;;;13.81;68.35;99174.38;4435792;32;34698;-86
2023/10/23 03:43:57;;;;;;;2.55;1.00;;;;;;;13.89;67.92;99175.22;4435849;32;34515;-87
2023/10/23 03:46:25;;;;;;;2.65;0.85;;;;;;;13.80;68.13;99180.44;4447084;32;33932;-86
2023/10/23 03:48:54;;;;;;;4.15;1.33;;;;;;;13.78;67.99;99180.44;4451012;32;34031;-86
2023/10/23 03:51:23;;;;;;;2.55;0.85;;;;;;;13.97;67.54;99180.44;4450221;32;34382;-87
2023/10/23 03:53:50;;;;;;;5.10;0.90;;;;;;;13.92;67.51;99183.03;4451210;32;33445;-87
2023/10/23 03:56:18;;;;;;;3.83;1.10;;;;;;;13.86;67.73;99183.03;4451085;32;34515;-86
2023/10/23 03:58:45;;;;;;;4.53;1.12;;;;;;;13.90;67.60;99179.56;4451048;32;34225;-86
2023/10/23 04:01:13;;;;;;;3.45;0.90;;;;;;;14.00;67.23;99178.69;4445231;32;34458;-86
2023/10/23 04:03:41;;;;;;;6.00;1.10;;;;;;;13.84;67.88;99179.56;4451265;32;33415;-86
2023/10/23 04:06:08;;;;;;;3.70;1.17;;;;;;;13.88;67.80;99189.12;4450510;32;34038;-86
2023/10/23 04:08:36;;;;;;;2.80;1.02;;;;;;;13.74;68.36;99185.66;4450891;32;33820;-85
2023/10/23 04:11:03;;;;;;;2.05;0.85;;;;;;;13.74;68.17;99186.50;4450873;32;34665;-86
2023/10/23 04:13:34;;;;;;;5.50;1.20;;;;;;;13.57;69.21;99204.75;4450828;32;34345;-86
2023/10/23 04:16:02;;;;;;;4.00;1.05;;;;;;;13.54;69.27;99196.94;4441687;32;33608;-86
2023/10/23 04:18:30;;;;;;;3.08;0.90;;;;;;;13.71;68.69;99196.94;4445493;32;34030;-86
2023/10/23 04:21:04;;;;;;;7.85;1.48;;;;;;;13.84;68.30;99195.22;4445627;32;35372;-85
2023/10/23 04:23:33;;;;;;;5.80;1.33;;;;;;;13.83;68.54;99206.50;4448435;32;33521;-84
2023/10/23 04:26:01;;;;;;;4.68;1.20;;;;;;;13.74;68.44;99214.31;4438299;32;34064;-87
2023/10/23 04:28:30;;;;;;;4.62;1.15;;;;;;;13.81;68.05;99203.03;4435197;32;34729;-86
2023/10/23 04:30:58;;;;;;;3.67;1.37;;;;;;;13.78;67.88;99222.13;4435342;32;33885;-86
2023/10/23 04:33:27;;;;;;;3.92;1.25;;;;;;;13.75;67.91;99216.03;4435402;32;33263;-86
2023/10/23 04:35:56;;;;;;;3.65;1.10;;;;;;;13.87;67.50;99201.28;4435059;32;34715;-86
2023/10/23 04:38:24;;;;;;;3.62;1.10;;;;;;;13.96;66.78;99207.38;4434606;32;34819;-87
2023/10/23 04:40:55;;;;;;;4.12;1.10;;;;;;;13.77;67.05;99206.50;4434844;32;34115;-87
2023/10/23 04:43:22;;;;;;;6.12;1.50;;;;;;;13.71;67.30;99211.69;4421724;32;33688;-86
2023/10/23 04:45:52;;;;;;;3.50;1.50;;;;;;;13.77;67.09;99211.72;4435157;32;33978;-87
2023/10/23 04:48:21;;;;;;;3.67;1.33;;;;;;;13.73;67.23;99217.78;4434827;32;34672;-86
2023/10/23 04:50:48;;;;;;;5.07;1.25;;;;;;;13.77;66.97;99209.97;4434861;32;33788;-86
2023/10/23 04:53:16;;;;;;;4.78;1.37;;;;;;;13.78;66.75;99214.31;4434307;32;33232;-87
2023/10/23 04:55:43;;;;;;;2.85;1.20;;;;;;;13.77;66.82;99224.75;4434788;32;34050;-87
2023/10/23 04:58:11;;;;;;;3.28;1.23;;;;;;;13.69;67.04;99222.13;4436083;32;34862;-87
2023/10/23 05:00:39;;;;;;;3.95;1.60;;;;;;;13.66;67.00;99227.31;4437960;32;34805;-84
2023/10/23 05:03:07;;;;;;;4.90;1.40;;;;;;;13.68;67.08;99219.53;4436916;32;33581;-85
2023/10/23 05:05:35;;;;;;;4.65;1.40;;;;;;;13.67;67.29;99215.16;4449095;32;33257;-86
2023/10/23 05:08:03;;;;;;;2.65;1.00;;;;;;;13.72;67.14;99223.87;4452398;32;34066;-85
2023/10/23 05:10:31;;;;;;;4.45;1.60;;;;;;;13.63;67.33;99216.91;4451696;32;34266;-87
2023/10/23 05:12:59;;;;;;;2.83;1.23;;;;;;;13.63;67.47;99206.47;4452668;32;33268;-86
2023/10/23 05:15:28;;;;;;;4.32;1.20;;;;;;;13.72;67.24;99214.31;4452782;32;34806;-84
2023/10/23 05:17:56;;;;;;;5.30;1.17;;;;;;;13.68;67.46;99211.72;4451333;32;33961;-86
2023/10/23 05:20:24;;;;;;;6.62;1.60;;;;;;;13.69;67.56;99218.66;4443057;32;34040;-85
2023/10/23 05:22:52;;;;;;;2.10;1.00;;;;;;;13.75;67.58;99206.50;4443208;32;33907;-84
2023/10/23 05:25:20;;;;;;;4.15;1.48;;;;;;;13.69;67.76;99216.06;4436986;32;33967;-87
2023/10/23 05:27:48;;;;;;;3.37;1.23;;;;;;;13.75;67.58;99208.22;4437581;32;34160;-85
2023/10/23 05:30:16;;;;;;;3.03;1.23;;;;;;;13.77;67.68;99209.09;4452444;32;34919;-83
2023/10/23 05:32:43;;;;;;;3.40;1.10;;;;;;;13.82;67.57;99212.56;4451218;32;33664;-85
2023/10/23 05:35:11;;;;;;;3.65;1.23;;;;;;;13.71;68.07;99209.09;4452656;32;34823;-83
2023/10/23 05:37:42;;;;;;;2.65;1.10;;;;;;;13.84;67.77;99224.75;4452334;32;34369;-85
2023/10/23 05:40:10;;;;;;;3.40;1.10;;;;;;;13.66;68.52;99236.88;4452560;32;34140;-86
2023/10/23 05:42:37;;;;;;;5.97;1.65;;;;;;;13.71;68.54;99235.16;4450841;32;34501;-87
2023/10/23 05:45:06;;;;;;;3.65;1.27;;;;;;;13.69;68.99;99242.09;4436809;32;34074;-87
2023/10/23 05:47:33;;;;;;;3.42;1.20;;;;;;;13.80;68.55;99245.59;4445908;32;34794;-87
2023/10/23 05:50:01;;;;;;;2.55;0.90;;;;;;;13.74;68.85;99246.44;4452248;32;34196;-85
2023/10/23 05:52:29;;;;;;;4.55;1.00;;;;;;;13.80;68.73;99250.81;4450830;32;33695;-86
2023/10/23 05:54:56;;;;;;;4.28;1.52;;;;;;;13.74;68.89;99256.84;4452124;32;33830;-86
2023/10/23 05:57:25;;;;;;;4.28;1.08;;;;;;;13.77;69.00;99251.66;4452239;32;34050;-87
2023/10/23 05:59:53;;;;;;;5.50;1.58;;;;;;;13.84;68.77;99258.62;4450904;32;34993;-83
2023/10/23 06:02:21;;;;;;;3.00;1.30;;;;;;;13.84;69.23;99260.34;4451279;32;33426;-85
2023/10/23 06:04:48;;;;;;;4.65;1.35;;;;;;;13.84;69.47;99257.75;4452460;32;34941;-86
2023/10/23 06:07:16;;;;;;;2.97;1.17;;;;;;;13.88;69.44;99260.34;4452232;32;34299;-84
2023/10/23 06:09:43;;;;;;;2.80;1.17;;;;;;;13.91;69.51;99259.50;4452078;32;33965;-85
2023/10/23 06:12:11;;;;;;;4.15;1.20;;;;;;;13.84;69.83;99263.84;4451370;32;34754;-84
2023/10/23 06:14:38;;;;;;;5.50;1.33;;;;;;;13.99;69.51;99265.59;4438104;32;33612;-85
2023/10/23 06:17:06;;;;;;;3.95;1.40;;;;;;;14.04;69.37;99271.66;4437080;32;34261;-86
2023/10/23 06:19:34;;;;;;;3.28;1.10;;;;;;;14.04;69.48;99274.25;4436898;32;33933;-85
2023/10/23 06:22:02;;;;;;;4.07;1.20;;;;;;;14.08;69.66;99267.31;4436128;32;34408;-86
2023/10/23 06:24:30;;;;;;;3.70;1.00;;;;;;;14.17;69.56;99271.66;4449516;32;34014;-86
2023/10/23 06:27:01;;;;;;;4.07;1.33;;;;;;;14.27;69.35;99273.41;4451137;32;33396;-87
2023/10/23 06:29:28;;;;;;;3.62;1.77;;;;;;;14.12;70.05;99282.94;4452016;32;34681;-87
2023/10/23 06:31:56;;;;;;;5.00;1.85;;;;;;;14.29;69.77;99282.09;4452150;32;33793;-87
2023/10/23 06:34:25;;;;;;;7.57;4.47;;;;;;;14.26;70.04;99280.34;4452099;32;33881;-86
2023/10/23 06:36:52;;;;;;;6.78;3.50;;;;;;;14.18;70.58;99271.66;4450829;32;33857;-85
2023/10/23 06:39:20;;;;;;;6.53;2.78;;;;;;;14.22;70.55;99280.38;4439322;32;33959;-86
2023/10/23 06:41:51;;;;;;;9.02;3.67;;;;;;;14.30;70.18;99284.69;4437030;32;33891;-87
2023/10/23 06:44:19;;;;;;;11.57;5.25;;;;;;;14.41;70.11;99283.84;4450572;32;34034;-86
2023/10/23 06:46:48;;;;;;;18.87;9.23;;;;;;;14.30;70.58;99276.00;4442306;32;34858;-84
2023/10/23 06:49:16;;;;;;;15.48;9.18;;;;;;;14.35;70.83;99284.69;4438744;32;34353;-86
2023/10/23 06:51:43;;;;;;;19.65;10.38;;;;;;;14.37;71.00;99272.53;4436477;32;33494;-87
2023/10/23 06:54:11;;;;;;;21.00;12.27;;;;;;;14.26;71.75;99279.50;4438081;32;34771;-87
2023/10/23 06:56:39;;;;;;;22.48;13.15;;;;;;;14.21;72.62;99279.50;4436722;32;33856;-86
2023/10/23 06:59:07;;;;;;;22.67;13.85;;;;;;;14.41;72.11;99276.87;4446771;32;34979;-86
2023/10/23 07:01:34;;;;;;;20.48;11.88;;;;;;;14.57;71.82;99277.75;4450072;32;34265;-86
2023/10/23 07:04:11;;;;;;;20.05;13.62;;;;;;;14.64;71.81;99278.63;4450084;32;33893;-84
2023/10/23 07:06:39;;;;;;;23.50;14.82;;;;;;;14.71;72.10;99275.13;4444568;32;35144;-87
2023/10/23 07:09:07;;;;;;;22.00;12.85;;;;;;;14.71;72.40;99277.75;4436348;32;34702;-87
2023/10/23 07:11:34;;;;;;;18.90;10.40;;;;;;;14.70;72.65;99289.91;4442846;32;33757;-87
2023/10/23 07:14:02;;;;;;;13.15;8.52;;;;;;;14.72;72.74;99288.16;4449344;32;33696;-85
2023/10/23 07:16:29;;;;;;;15.35;8.95;;;;;;;14.88;72.26;99275.94;4439638;32;34940;-83
2023/10/23 07:18:58;;;;;;;15.05;8.93;;;;;;;14.96;72.19;99284.59;4451462;32;34116;-84
2023/10/23 07:21:45;;;;;;;17.27;9.57;;;;;;;15.02;72.42;99289.81;4449900;32;34455;-85
2023/10/23 07:24:12;;;;;;;17.15;8.90;;;;;;;15.29;71.48;99296.69;4451539;32;33809;-86
2023/10/23 07:26:40;;;;;;;11.52;8.20;;;;;;;15.25;71.47;99291.47;4451737;32;34674;-87
2023/10/23 07:29:08;;;;;;;16.25;8.18;;;;;;;15.45;69.87;99297.47;4442362;32;34960;-87
2023/10/23 07:31:36;;;;;;;11.75;7.12;;;;;;;15.25;68.06;99294.09;4443563;32;33599;-85
2023/10/23 07:34:04;;;;;;;14.15;8.57;;;;;;;15.19;66.68;99296.72;4439238;32;35344;-89
2023/10/23 07:36:32;;;;;;;19.42;10.13;;;;;;;15.18;67.53;99295.84;4451644;32;33845;-86
2023/10/23 07:38:59;;;;;;;22.27;13.13;;;;;;;15.38;67.02;99298.41;4451795;32;33885;-86
2023/10/23 07:41:27;;;;;;;26.60;12.90;;;;;;;15.33;67.22;99298.41;4444567;32;34201;-86
2023/10/23 07:43:54;;;;;;;49.97;35.75;;;;;;;15.52;66.23;99298.31;4447892;32;33223;-85
2023/10/23 07:46:22;;;;;;;13.13;9.82;;;;;;;15.48;66.72;99307.91;4443144;32;33981;-87
2023/10/23 07:48:51;;;;;;;14.90;10.05;;;;;;;15.44;67.60;99305.31;4448310;32;89045;-86
2023/10/23 07:51:18;;;;;;;10.90;8.35;;;;;;;15.59;67.63;99310.47;4441820;32;34628;-87
2023/10/23 07:53:46;;;;;;;11.23;9.32;;;;;;;15.49;66.67;99314.91;4446000;32;34713;-81
2023/10/23 07:56:14;;;;;;;11.80;8.30;;;;;;;15.41;66.48;99310.56;4444075;32;34651;-85
2023/10/23 07:58:41;;;;;;;12.52;8.10;;;;;;;15.07;67.92;99314.16;4448805;32;35209;-85
2023/10/23 08:01:11;;;;;;;12.32;9.07;;;;;;;15.27;67.79;99308.03;4451962;32;33534;-88
2023/10/23 08:03:40;;;;;;;11.25;8.68;;;;;;;15.18;67.92;99315.87;4451171;32;34927;-85
2023/10/23 08:06:09;;;;;;;14.63;10.55;;;;;;;15.40;67.64;99309.69;4451185;32;33936;-84
2023/10/23 08:08:38;;;;;;;15.35;12.15;;;;;;;15.62;66.92;99304.38;4447783;32;34435;-86
2023/10/23 08:11:07;;;;;;;15.68;10.77;;;;;;;15.54;67.87;99307.03;4435663;32;33658;-84
2023/10/23 08:13:35;;;;;;;16.27;9.85;;;;;;;15.65;68.37;99304.38;4435440;32;34662;-88
2023/10/23 08:16:03;;;;;;;11.40;9.00;;;;;;;15.77;68.09;99297.34;4435958;32;33970;-84
2023/10/23 08:18:34;;;;;;;12.02;9.90;;;;;;;15.69;67.44;99296.53;4435274;32;33809;-88
2023/10/23 08:21:12;;;;;;;14.80;8.80;;;;;;;15.62;68.74;99288.69;4435632;32;34435;-91
2023/10/23 08:23:58;;;;;;;11.63;8.43;;;;;;;15.68;67.80;99291.28;4443262;32;34847;-88
2023/10/23 08:26:25;;;;;;;12.18;9.85;;;;;;;15.81;66.36;99290.34;4450798;32;33669;-84
2023/10/23 08:28:53;;;;;;;11.88;8.40;;;;;;;15.97;66.00;99294.59;4451007;32;33873;-86
2023/10/23 08:31:30;;;;;;;13.57;11.20;;;;;;;16.14;66.09;99302.31;4451467;32;33375;-84
2023/10/23 08:34:07;;;;;;;7.70;5.07;;;;;;;16.22;64.84;99307.50;4452151;32;34410;-84
2023/10/23 08:36:35;;;;;;;8.82;7.12;;;;;;;16.11;61.07;99278.81;4439839;32;34092;-86
2023/10/23 08:39:03;;;;;;;9.80;6.65;;;;;;;16.32;63.15;99288.22;4437545;32;34165;-82
2023/10/23 08:41:31;;;;;;;11.88;7.95;;;;;;;16.46;61.70;99288.97;4437798;32;33722;-88
2023/10/23 08:43:59;;;;;;;9.35;7.20;;;;;;;16.53;64.47;99292.41;4437405;32;34593;-85
2023/10/23 08:46:31;;;;;;;7.87;5.18;;;;;;;16.38;59.62;99285.56;4447460;32;34867;-86
2023/10/23 08:49:01;;;;;;;8.88;5.93;;;;;;;16.60;60.41;99278.38;4452856;32;33768;-83
2023/10/23 08:51:30;;;;;;;10.25;5.50;;;;;;;16.94;60.86;99273.69;4452491;32;34126;-87
2023/10/23 08:54:01;;;;;;;9.15;6.35;;;;;;;17.06;59.96;99272.66;4452654;32;33981;-85
2023/10/23 08:56:41;;;;;;;11.63;7.65;;;;;;;17.12;58.67;99271.72;4428556;32;34345;-88
2023/10/23 08:59:14;;;;;;;9.43;5.72;;;;;;;16.98;58.87;99279.75;4437299;32;34032;-84
2023/10/23 09:01:42;;;;;;;9.88;6.87;;;;;;;17.22;58.75;99281.22;4442240;32;34794;-87
2023/10/23 09:04:10;;;;;;;11.10;6.37;;;;;;;16.99;59.33;99281.47;4435829;32;34256;-85
2023/10/23 09:06:39;;;;;;;8.32;5.55;;;;;;;16.95;59.64;99280.66;4445018;32;34986;-82
2023/10/23 09:09:07;;;;;;;9.38;6.40;;;;;;;17.24;57.27;99288.19;4436614;32;34965;-85
2023/10/23 09:11:38;;;;;;;9.63;6.05;;;;;;;17.41;57.55;99284.47;4444747;32;33511;-85
2023/10/23 09:14:05;;;;;;;8.80;6.40;;;;;;;16.91;59.25;99286.81;4437442;32;33730;-84
2023/10/23 09:16:35;;;;;;;9.35;5.12;;;;;;;17.46;59.27;99287.88;4445028;32;33367;-84
2023/10/23 09:19:04;;;;;;;10.35;4.87;;;;;;;17.68;57.99;99283.22;4435765;32;34056;-83
2023/10/23 09:21:32;;;;;;;8.23;5.12;;;;;;;17.56;57.40;99288.62;4436767;32;33730;-83
2023/10/23 09:24:03;;;;;;;7.37;5.25;;;;;;;17.24;56.04;99293.41;4436803;32;34663;-81
2023/10/23 09:26:31;;;;;;;8.52;5.15;;;;;;;17.73;56.39;99287.53;4436656;32;33893;-82
2023/10/23 09:28:58;;;;;;;9.50;5.68;;;;;;;17.65;56.19;99278.00;4436958;32;34045;-85
2023/10/23 09:31:26;;;;;;;7.80;5.25;;;;;;;17.82;55.81;99285.69;4437057;32;33229;-85
2023/10/23 09:33:54;;;;;;;8.98;5.00;;;;;;;17.96;55.45;99279.34;4436553;32;33741;-84
2023/10/23 09:36:21;;;;;;;8.75;4.30;;;;;;;18.04;56.72;99278.38;4437045;32;34138;-83
2023/10/23 09:38:59;;;;;;;6.70;3.70;;;;;;;18.28;54.77;99272.69;4438342;32;34090;-83
2023/10/23 09:41:27;;;;;;;7.55;4.40;;;;;;;17.88;54.52;99275.09;4438522;32;33206;-84
2023/10/23 09:43:57;;;;;;;7.72;3.75;;;;;;;18.30;55.36;99276.19;4437591;32;33949;-83
2023/10/23 09:46:28;;;;;;;8.63;4.87;;;;;;;18.37;54.97;99279.53;4451665;32;33663;-84
2023/10/23 09:48:59;;;;;;;8.35;4.80;;;;;;;18.17;55.26;99282.50;4451853;32;33885;-83
2023/10/23 09:51:39;;;;;;;8.35;3.85;;;;;;;18.15;55.88;99282.53;4451572;32;33060;-85
2023/10/23 09:54:17;;;;;;;6.95;3.58;;;;;;;18.29;55.16;99282.31;4451974;32;34601;-85
2023/10/23 09:56:52;;;;;;;6.18;3.50;;;;;;;18.26;54.50;99282.38;4451733;32;35046;-85
2023/10/23 09:59:32;;;;;;;9.05;5.05;;;;;;;17.82;56.15;99281.31;4451432;32;34790;-84
2023/10/23 10:02:00;;;;;;;8.50;4.78;;;;;;;18.39;56.31;99278.63;4438160;32;34464;-84
2023/10/23 10:04:31;;;;;;;6.72;4.03;;;;;;;18.27;58.19;99284.09;4451977;32;33865;-82
2023/10/23 10:07:09;;;;;;;8.88;3.78;;;;;;;18.50;55.15;99267.09;4447920;32;34414;-84
2023/10/23 10:09:37;;;;;;;12.93;4.35;;;;;;;18.37;57.34;99269.94;4432729;32;34339;-87
2023/10/23 10:12:06;;;;;;;6.00;3.65;;;;;;;18.93;55.02;99265.41;4444200;32;33302;-86
2023/10/23 10:14:33;;;;;;;5.80;2.85;;;;;;;18.93;56.07;99265.41;4436497;32;34564;-82
2023/10/23 10:17:02;;;;;;;7.20;3.50;;;;;;;19.02;54.39;99264.38;4427174;32;34675;-85
2023/10/23 10:19:31;;;;;;;6.25;3.17;;;;;;;19.04;56.12;99266.97;4450144;32;34847;-85
2023/10/23 10:22:01;;;;;;;6.25;3.45;;;;;;;18.86;54.25;99270.81;4448420;32;33514;-82
2023/10/23 10:24:33;;;;;;;5.03;2.62;;;;;;;18.88;54.28;99264.66;4446832;32;34735;-83
2023/10/23 10:27:03;;;;;;;5.68;2.78;;;;;;;18.79;55.19;99264.84;4429122;32;33983;-87
2023/10/23 10:29:31;;;;;;;5.72;3.40;;;;;;;18.88;55.61;99256.75;4420640;32;32664;-83
2023/10/23 10:32:09;;;;;;;7.05;2.75;;;;;;;19.23;53.10;99260.44;4439042;32;34263;-83
2023/10/23 10:34:52;;;;;;;5.82;2.87;;;;;;;19.23;53.76;99263.06;4443937;32;33570;-83
2023/10/23 10:37:26;;;;;;;6.62;2.92;;;;;;;19.45;51.45;99252.97;4437917;32;33878;-85
2023/10/23 10:39:58;;;;;;;6.57;3.03;;;;;;;19.18;54.98;99249.16;4424695;32;33805;-84
2023/10/23 10:42:28;;;;;;;6.22;2.67;;;;;;;19.45;55.07;99247.72;4437074;32;32988;-86
2023/10/23 10:45:11;;;;;;;5.80;2.08;;;;;;;19.38;53.94;99238.22;4443894;32;34750;-83
2023/10/23 10:47:51;;;;;;;7.40;2.50;;;;;;;19.50;51.64;99244.97;4426862;32;33507;-83
2023/10/23 10:50:30;;;;;;;5.07;1.65;;;;;;;19.40;52.54;99239.06;4447898;32;34156;-84
2023/10/23 10:53:02;;;;;;;5.55;1.60;;;;;;;19.40;51.77;99247.81;4436232;32;33178;-83
2023/10/23 10:55:31;;;;;;;5.03;1.50;;;;;;;19.52;52.26;99245.81;4425460;32;33825;-81
2023/10/23 10:57:59;;;;;;;3.80;1.42;;;;;;;19.39;54.97;99246.06;4443211;32;34272;-84
2023/10/23 11:00:32;;;;;;;8.48;1.65;;;;;;;19.19;52.92;99245.63;4450257;32;34104;-84
2023/10/23 11:03:00;;;;;;;7.78;1.83;;;;;;;19.33;55.17;99250.62;4433324;32;33766;-82
2023/10/23 11:05:28;;;;;;;5.53;1.60;;;;;;;19.56;53.85;99244.84;4448769;32;33921;-81
2023/10/23 11:07:56;;;;;;;3.85;1.60;;;;;;;19.15;54.23;99243.97;4446455;32;35141;-84
2023/10/23 11:10:25;;;;;;;4.18;1.50;;;;;;;19.42;53.68;99242.50;4447761;32;34141;-83
2023/10/23 11:12:53;;;;;;;4.43;1.77;;;;;;;19.50;55.26;99242.34;4446143;32;34360;-85
2023/10/23 11:15:21;;;;;;;4.43;1.70;;;;;;;19.76;53.32;99247.91;4444471;32;33576;-82
2023/10/23 11:17:48;;;;;;;5.85;1.75;;;;;;;19.67;54.34;99238.47;4450234;32;35173;-82
2023/10/23 11:20:16;;;;;;;5.87;1.65;;;;;;;19.65;54.72;99245.50;4436389;32;34739;-82
2023/10/23 11:22:44;;;;;;;5.78;1.90;;;;;;;19.84;53.42;99231.94;4449745;32;33685;-82
2023/10/23 11:25:13;;;;;;;5.55;1.75;;;;;;;19.59;54.17;99239.53;4449672;32;33949;-85
2023/10/23 11:27:41;;;;;;;4.03;1.67;;;;;;;20.06;52.64;99229.66;4435530;32;34246;-83
2023/10/23 11:30:09;;;;;;;4.87;1.77;;;;;;;19.92;53.81;99214.19;4456728;32;33740;-85
2023/10/23 11:32:37;;;;;;;7.40;1.40;;;;;;;19.96;55.77;99213.22;4443800;32;34327;-85
2023/10/23 11:35:05;;;;;;;3.75;1.48;;;;;;;20.01;53.36;99215.75;4438603;32;34707;-86
2023/10/23 11:37:37;;;;;;;5.72;1.40;;;;;;;19.84;53.98;99203.88;4436295;32;34084;-88
2023/10/23 11:40:07;;;;;;;4.72;1.70;;;;;;;19.91;55.75;99202.81;4421920;32;33657;-87